Dillard, GA (30537)

8:46 AM EST on December 07, 2016 (GMT -0500)
Sky Valley, GA | | Change Station

Elev 3750 ft 34.98 °N, 83.33 °W | Updated 1 minute ago

Fog
Fog
41.3 °F
Feels Like 41 °F
N
0.0
Wind Variable Wind from East
Gusts 4.0 mph

Today
High -- | Low -- °F
--% Chance of Precip.
Yesterday
High -- | Low -- °F
Precip. -- in
Pressure 30.06 in
Visibility 0.2 miles
Clouds Overcast 100 ft
Windchill 41 °F
Dew Point 36 °F
Humidity 82%
Rainfall 0.00 in
Snow Depth Not available.
7:28 AM 5:21 PM
First Quarter, 52% visible
METAR K1A5 071325Z AUTO 00000KT 1/4SM FG OVC001 02/01 A3006 RMK AO2 T00150009
Pressure 30.06 in
Visibility 0.2 miles
Clouds Overcast 100 ft
Windchill 41 °F
Dew Point 36 °F
Humidity 82%
Rainfall 0.00 in
Snow Depth Not available.
7:28 AM 5:21 PM
First Quarter, 52% visible
METAR K1A5 071325Z AUTO 00000KT 1/4SM FG OVC001 02/01 A3006 RMK AO2 T00150009

10-Day Weather Forecast

Almanac

Astronomy

Dec. 07, 2016 Rise Set
Actual Time
Civil Twilight
Nautical Twilight
Astronomical Twilight
Moon
Length of Visible Light
Length of Day
Tomorrow will be .
, % of the Moon is Illuminated

Today's Extremes

State Highs State Lows

Community

WunderPhotos

Upload Photos

1,956,114 photos uploaded!

WunderBlog® & News

Nearby

Air Quality

  Air Quality AQ Index Pollutant
Not available.

Snow Depth

Station Depth Elevation

Earthquake Activity

City Distance Mag. Time & Date
Minimum magnitude displayed is 2.5.

Coastal Water Temperatures

Place Temperature

Stations

Nearby Weather Stations

Station Location Temp. Windchill Dew Point Humidity Wind Precip. Elev Updated Type
                   

Watches & Warnings

There are currently no watches in effect.